Tatum Ann — WDA6623 — position and weather

sailwx.info

Track history (hours):
 
Tides and Currents Weather Stations Pressure Air Temp Water Temp Dewpoint Dewpoint Depression Visibility Wind Speed Wind Dir Waves Ship Positions

Tatum Ann

Owner: Crosby Tugs, LLC, Golden Meadow, LA. More information available from US FCC via Universal Licensing System and Coast Guard Vessel Documentation Center.

Last reported at 2017-Dec-11 17:00 UTC. Time now 2017-Dec-12 04:17 UTC.
Position N 29°37' W 095°01'.

; draft 2 m.

Type: Towing. MMSI: 366834390.

Date/timePositionNaut miles runAvg speedWind from/ knotsBaromVisibWave heightAir tempDewpointWater temp
2017-Dec-11 17:00N 29°37' W 095°01'0 0.0
2017-Dec-11 16:30N 29°37' W 095°01'0 0.0
2017-Dec-11 16:00N 29°37' W 095°01'0 0.0
2017-Dec-11 15:30N 29°37' W 095°01'0 0.0
2017-Dec-11 15:00N 29°37' W 095°01'0 0.0
2017-Dec-11 14:30N 29°37' W 095°01'0 0.0
2017-Dec-11 14:00N 29°37' W 095°01'0 0.0
2017-Dec-11 13:30N 29°37' W 095°01'0 0.0
2017-Dec-11 13:00N 29°37' W 095°01'0 0.0
2017-Dec-11 12:30N 29°37' W 095°01'0 0.0
2017-Dec-11 12:00N 29°37' W 095°01'0 0.0
2017-Dec-11 11:30N 29°37' W 095°01'0 0.0
2017-Dec-11 11:00N 29°37' W 095°01'0 0.0
2017-Dec-11 10:30N 29°37' W 095°01'0 0.0
2017-Dec-11 10:00N 29°37' W 095°01'0 0.0
2017-Dec-11 09:30N 29°37' W 095°01'0 0.0
2017-Dec-11 09:00N 29°37' W 095°01'0 0.0
2017-Dec-11 08:30N 29°37' W 095°01'0 0.0
2017-Dec-11 08:00N 29°37' W 095°01'0 0.0
2017-Dec-11 07:30N 29°37' W 095°01'0 0.0
2017-Dec-11 07:00N 29°37' W 095°01'0 0.0
2017-Dec-11 06:30N 29°37' W 095°01'0 0.0
2017-Dec-11 06:00N 29°37' W 095°01'0 0.0
2017-Dec-11 05:30N 29°37' W 095°01'0 0.0
2017-Dec-11 05:00N 29°37' W 095°01'0 0.0
2017-Dec-11 04:30N 29°37' W 095°01'0 0.0
2017-Dec-11 04:00N 29°37' W 095°01'0 0.0
2017-Dec-11 03:30N 29°37' W 095°01'0 0.0
2017-Dec-11 03:00N 29°37' W 095°01'0 0.0
2017-Dec-11 02:30N 29°37' W 095°01'1 2.9
2017-Dec-11 02:00N 29°37' W 094°60'0 0.7
2017-Dec-11 01:30N 29°37' W 095°00'1 2.2
2017-Dec-11 01:00N 29°37' W 095°01'1 2.5
2017-Dec-11 00:30N 29°37' W 095°00'3 5.1
2017-Dec-11 00:00N 29°37' W 094°57'4 7.3
2017-Dec-10 23:30N 29°33' W 094°55'4 7.2
2017-Dec-10 23:00N 29°30' W 094°53'64 5.3
2017-Dec-10 10:49N 29°60' W 093°47'3 7.5
2017-Dec-10 10:27N 30°02' W 093°44'6 5.8
2017-Dec-10 09:19N 30°04' W 093°37'2 6.8
2017-Dec-10 09:00N 30°04' W 093°35'3 6.8
2017-Dec-10 08:30N 30°04' W 093°31'3 6.7
2017-Dec-10 08:00N 30°04' W 093°27'3 6.6
2017-Dec-10 07:30N 30°04' W 093°23'3 6.0
2017-Dec-10 07:00N 30°05' W 093°20'2 3.8
2017-Dec-10 06:30N 30°06' W 093°18'2 3.4
2017-Dec-10 06:00N 30°05' W 093°17'0 0.6
2017-Dec-10 05:30N 30°04' W 093°16'3 5.8
2017-Dec-10 05:00N 30°02' W 093°15'2 4.9
2017-Dec-10 04:30N 29°60' W 093°13'3 5.2
2017-Dec-10 04:00N 29°58' W 093°11'3 6.0
2017-Dec-10 03:30N 29°56' W 093°08'3 6.1
2017-Dec-10 03:00N 29°56' W 093°05'38 5.7
2017-Dec-09 20:20N 29°51' W 092°21'2 5.9
2017-Dec-09 20:00N 29°50' W 092°19'3 5.6
2017-Dec-09 19:30N 29°49' W 092°17'3 6.2
2017-Dec-09 19:00N 29°48' W 092°13'3 6.2
2017-Dec-09 18:30N 29°47' W 092°10'3 6.3
2017-Dec-09 18:00N 29°48' W 092°07'3 6.6
2017-Dec-09 17:30N 29°49' W 092°03'3 5.8
2017-Dec-09 17:00N 29°50' W 091°60'63 5.2
2017-Dec-09 04:57N 29°32' W 090°50'3 6.3
2017-Dec-09 04:30N 29°32' W 090°47'2 5.0
2017-Dec-09 04:00N 29°34' W 090°45'2 4.6
2017-Dec-09 03:30N 29°35' W 090°43'2 3.8
2017-Dec-09 03:00N 29°37' W 090°42'3 6.0
2017-Dec-09 02:30N 29°35' W 090°38'3 5.4
2017-Dec-09 02:00N 29°35' W 090°35'3 6.1
2017-Dec-09 01:30N 29°34' W 090°32'3 6.4
2017-Dec-09 01:00N 29°34' W 090°28'0 0.0
2017-Dec-08 00:27N 29°33' W 090°28'2 5.5
2017-Dec-08 00:00N 29°34' W 090°31'3 5.4
2017-Dec-07 23:25N 29°34' W 090°34'2 5.1
2017-Dec-07 23:00N 29°35' W 090°37'3 5.3
2017-Dec-07 22:30N 29°36' W 090°39'2 4.9
2017-Dec-07 22:00N 29°37' W 090°42'1 2.8
2017-Dec-07 21:30N 29°36' W 090°43'2 3.1
2017-Dec-07 21:00N 29°34' W 090°43'2 3.2
2017-Dec-07 20:30N 29°34' W 090°45'1 2.3
2017-Dec-07 20:00N 29°33' W 090°46'2 3.1
2017-Dec-07 19:30N 29°32' W 090°47'3 5.6
2017-Dec-07 19:00N 29°32' W 090°51'3 5.3
2017-Dec-07 18:29N 29°33' W 090°54'3 5.4
2017-Dec-07 18:00N 29°34' W 090°56'57 3.4
2017-Dec-07 01:29N 29°50' W 091°59'3 5.6
2017-Dec-07 01:00N 29°49' W 092°02'3 5.9
2017-Dec-07 00:30N 29°48' W 092°05'3 5.5
2017-Dec-07 00:00N 29°47' W 092°08'3 5.9
2017-Dec-06 23:30N 29°47' W 092°11'3 6.5
2017-Dec-06 23:00N 29°48' W 092°15'3 5.9
2017-Dec-06 22:30N 29°49' W 092°18'3 5.6
2017-Dec-06 22:00N 29°51' W 092°21'3 5.5
2017-Dec-06 21:23N 29°53' W 092°23'  
2017-Dec-04 06:55N 29°44' W 095°13'2 6.2
2017-Dec-04 06:30N 29°44' W 095°16'2 3.4
2017-Dec-04 06:00N 29°44' W 095°14'3 6.1
2017-Dec-04 05:30N 29°45' W 095°11'3 6.5
2017-Dec-04 05:00N 29°44' W 095°07'3 5.0
2017-Dec-04 04:28N 29°45' W 095°04'3 6.3
2017-Dec-04 03:59N 29°43' W 095°01'3 6.9
2017-Dec-04 03:30N 29°40' W 094°59'4 7.5
2017-Dec-04 03:00N 29°37' W 094°57'4 7.4
2017-Dec-04 02:30N 29°34' W 094°55'12 0.5
2017-Dec-03 04:34N 29°23' W 094°52'0 0.0
2017-Dec-03 04:28N 29°23' W 094°52'0 0.0
2017-Dec-03 03:22N 29°23' W 094°52'0 0.0
2017-Dec-03 00:35N 29°23' W 094°52'11 1.7
2017-Dec-02 18:01N 29°33' W 094°55'0 8.7
2017-Dec-02 18:00N 29°33' W 094°55'4 8.8
2017-Dec-02 17:30N 29°37' W 094°57'5 8.9
2017-Dec-02 17:00N 29°41' W 094°59'5 7.3
2017-Dec-02 16:20N 29°44' W 095°03'3 5.4
2017-Dec-02 15:47N 29°44' W 095°07'2 7.9
2017-Dec-02 15:30N 29°44' W 095°09'3 6.5
2017-Dec-02 15:00N 29°43' W 095°13'3 6.1
2017-Dec-02 14:30N 29°44' W 095°16'1 2.0
2017-Dec-02 14:00N 29°44' W 095°17'3 5.0
2017-Dec-02 13:25N 29°44' W 095°14'2 0.9
2017-Dec-02 11:38N 29°44' W 095°12'0 0.0
2017-Dec-02 10:36N 29°44' W 095°12'0 0.0
2017-Dec-02 10:20N 29°44' W 095°12'0 0.0
2017-Dec-02 09:55N 29°44' W 095°12'0 0.0
2017-Dec-02 09:29N 29°44' W 095°12'0 0.0
2017-Dec-02 09:00N 29°44' W 095°12'0 0.0
2017-Dec-02 08:29N 29°44' W 095°12'0 0.0
2017-Dec-02 08:00N 29°44' W 095°12'0 0.0
2017-Dec-02 07:30N 29°44' W 095°12'0 0.0
2017-Dec-02 07:00N 29°44' W 095°12'0 0.0
2017-Dec-02 06:30N 29°44' W 095°12'0 0.0
2017-Dec-02 06:00N 29°44' W 095°12'0 0.0
2017-Dec-02 05:30N 29°44' W 095°12'0 0.0
2017-Dec-02 05:00N 29°44' W 095°12'0 0.0
2017-Dec-02 04:30N 29°44' W 095°12'0 0.0
2017-Dec-02 04:00N 29°44' W 095°12'0 0.0
2017-Dec-02 03:29N 29°44' W 095°12'0 0.0
2017-Dec-02 03:00N 29°44' W 095°12'0 0.0
2017-Dec-02 02:30N 29°44' W 095°12'0 0.0
2017-Dec-02 02:00N 29°44' W 095°12'0 0.0
2017-Dec-02 01:30N 29°44' W 095°12'0 0.0
2017-Dec-02 00:59N 29°44' W 095°12'0 0.0
2017-Dec-02 00:28N 29°44' W 095°12'0 0.0
2017-Dec-01 23:57N 29°44' W 095°12'0 0.0
2017-Dec-01 23:30N 29°44' W 095°12'0 0.0
2017-Dec-01 22:58N 29°44' W 095°12'0 0.0
2017-Dec-01 22:13N 29°44' W 095°12'0 0.0
2017-Dec-01 21:59N 29°44' W 095°12'0 0.0
2017-Dec-01 21:27N 29°44' W 095°12'0 0.0
2017-Dec-01 18:51N 29°44' W 095°12'0 0.0
2017-Dec-01 18:07N 29°44' W 095°12'0 0.0
2017-Dec-01 17:53N 29°44' W 095°12'0 0.0
2017-Dec-01 17:27N 29°44' W 095°12'  
Track history (hours):
 
Tides and Currents Weather Stations Pressure Air Temp Water Temp Dewpoint Dewpoint Depression Visibility Wind Speed Wind Dir Waves Ship Positions

Tatum Ann

Owner: Crosby Tugs, LLC, Golden Meadow, LA. More information available from US FCC via Universal Licensing System and Coast Guard Vessel Documentation Center.

Last reported at 2017-Dec-11 17:00 UTC. Time now 2017-Dec-12 04:17 UTC.
Position N 29°37' W 095°01'.

; draft 2 m.

Type: Towing. MMSI: 366834390.

Date/timePositionNaut miles runAvg speedWind from/ knotsBaromVisibWave heightAir tempDewpointWater temp
2017-Dec-11 17:00N 29°37' W 095°01'0 0.0
2017-Dec-11 16:30N 29°37' W 095°01'0 0.0
2017-Dec-11 16:00N 29°37' W 095°01'0 0.0
2017-Dec-11 15:30N 29°37' W 095°01'0 0.0
2017-Dec-11 15:00N 29°37' W 095°01'0 0.0
2017-Dec-11 14:30N 29°37' W 095°01'0 0.0
2017-Dec-11 14:00N 29°37' W 095°01'0 0.0
2017-Dec-11 13:30N 29°37' W 095°01'0 0.0
2017-Dec-11 13:00N 29°37' W 095°01'0 0.0
2017-Dec-11 12:30N 29°37' W 095°01'0 0.0
2017-Dec-11 12:00N 29°37' W 095°01'0 0.0
2017-Dec-11 11:30N 29°37' W 095°01'0 0.0
2017-Dec-11 11:00N 29°37' W 095°01'0 0.0
2017-Dec-11 10:30N 29°37' W 095°01'0 0.0
2017-Dec-11 10:00N 29°37' W 095°01'0 0.0
2017-Dec-11 09:30N 29°37' W 095°01'0 0.0
2017-Dec-11 09:00N 29°37' W 095°01'0 0.0
2017-Dec-11 08:30N 29°37' W 095°01'0 0.0
2017-Dec-11 08:00N 29°37' W 095°01'0 0.0
2017-Dec-11 07:30N 29°37' W 095°01'0 0.0
2017-Dec-11 07:00N 29°37' W 095°01'0 0.0
2017-Dec-11 06:30N 29°37' W 095°01'0 0.0
2017-Dec-11 06:00N 29°37' W 095°01'0 0.0
2017-Dec-11 05:30N 29°37' W 095°01'0 0.0
2017-Dec-11 05:00N 29°37' W 095°01'0 0.0
2017-Dec-11 04:30N 29°37' W 095°01'0 0.0
2017-Dec-11 04:00N 29°37' W 095°01'0 0.0
2017-Dec-11 03:30N 29°37' W 095°01'0 0.0
2017-Dec-11 03:00N 29°37' W 095°01'0 0.0
2017-Dec-11 02:30N 29°37' W 095°01'1 2.9
2017-Dec-11 02:00N 29°37' W 094°60'0 0.7
2017-Dec-11 01:30N 29°37' W 095°00'1 2.2
2017-Dec-11 01:00N 29°37' W 095°01'1 2.5
2017-Dec-11 00:30N 29°37' W 095°00'3 5.1
2017-Dec-11 00:00N 29°37' W 094°57'4 7.3
2017-Dec-10 23:30N 29°33' W 094°55'4 7.2
2017-Dec-10 23:00N 29°30' W 094°53'64 5.3
2017-Dec-10 10:49N 29°60' W 093°47'3 7.5
2017-Dec-10 10:27N 30°02' W 093°44'6 5.8
2017-Dec-10 09:19N 30°04' W 093°37'2 6.8
2017-Dec-10 09:00N 30°04' W 093°35'3 6.8
2017-Dec-10 08:30N 30°04' W 093°31'3 6.7
2017-Dec-10 08:00N 30°04' W 093°27'3 6.6
2017-Dec-10 07:30N 30°04' W 093°23'3 6.0
2017-Dec-10 07:00N 30°05' W 093°20'2 3.8
2017-Dec-10 06:30N 30°06' W 093°18'2 3.4
2017-Dec-10 06:00N 30°05' W 093°17'0 0.6
2017-Dec-10 05:30N 30°04' W 093°16'3 5.8
2017-Dec-10 05:00N 30°02' W 093°15'2 4.9
2017-Dec-10 04:30N 29°60' W 093°13'3 5.2
2017-Dec-10 04:00N 29°58' W 093°11'3 6.0
2017-Dec-10 03:30N 29°56' W 093°08'3 6.1
2017-Dec-10 03:00N 29°56' W 093°05'38 5.7
2017-Dec-09 20:20N 29°51' W 092°21'2 5.9
2017-Dec-09 20:00N 29°50' W 092°19'3 5.6
2017-Dec-09 19:30N 29°49' W 092°17'3 6.2
2017-Dec-09 19:00N 29°48' W 092°13'3 6.2
2017-Dec-09 18:30N 29°47' W 092°10'3 6.3
2017-Dec-09 18:00N 29°48' W 092°07'3 6.6
2017-Dec-09 17:30N 29°49' W 092°03'3 5.8
2017-Dec-09 17:00N 29°50' W 091°60'63 5.2
2017-Dec-09 04:57N 29°32' W 090°50'3 6.3
2017-Dec-09 04:30N 29°32' W 090°47'2 5.0
2017-Dec-09 04:00N 29°34' W 090°45'2 4.6
2017-Dec-09 03:30N 29°35' W 090°43'2 3.8
2017-Dec-09 03:00N 29°37' W 090°42'3 6.0
2017-Dec-09 02:30N 29°35' W 090°38'3 5.4
2017-Dec-09 02:00N 29°35' W 090°35'3 6.1
2017-Dec-09 01:30N 29°34' W 090°32'3 6.4
2017-Dec-09 01:00N 29°34' W 090°28'0 0.0
2017-Dec-08 00:27N 29°33' W 090°28'2 5.5
2017-Dec-08 00:00N 29°34' W 090°31'3 5.4
2017-Dec-07 23:25N 29°34' W 090°34'2 5.1
2017-Dec-07 23:00N 29°35' W 090°37'3 5.3
2017-Dec-07 22:30N 29°36' W 090°39'2 4.9
2017-Dec-07 22:00N 29°37' W 090°42'1 2.8
2017-Dec-07 21:30N 29°36' W 090°43'2 3.1
2017-Dec-07 21:00N 29°34' W 090°43'2 3.2
2017-Dec-07 20:30N 29°34' W 090°45'1 2.3
2017-Dec-07 20:00N 29°33' W 090°46'2 3.1
2017-Dec-07 19:30N 29°32' W 090°47'3 5.6
2017-Dec-07 19:00N 29°32' W 090°51'3 5.3
2017-Dec-07 18:29N 29°33' W 090°54'3 5.4
2017-Dec-07 18:00N 29°34' W 090°56'57 3.4
2017-Dec-07 01:29N 29°50' W 091°59'3 5.6
2017-Dec-07 01:00N 29°49' W 092°02'3 5.9
2017-Dec-07 00:30N 29°48' W 092°05'3 5.5
2017-Dec-07 00:00N 29°47' W 092°08'3 5.9
2017-Dec-06 23:30N 29°47' W 092°11'3 6.5
2017-Dec-06 23:00N 29°48' W 092°15'3 5.9
2017-Dec-06 22:30N 29°49' W 092°18'3 5.6
2017-Dec-06 22:00N 29°51' W 092°21'3 5.5
2017-Dec-06 21:23N 29°53' W 092°23'  
2017-Dec-04 06:55N 29°44' W 095°13'2 6.2
2017-Dec-04 06:30N 29°44' W 095°16'2 3.4
2017-Dec-04 06:00N 29°44' W 095°14'3 6.1
2017-Dec-04 05:30N 29°45' W 095°11'3 6.5
2017-Dec-04 05:00N 29°44' W 095°07'3 5.0
2017-Dec-04 04:28N 29°45' W 095°04'3 6.3
2017-Dec-04 03:59N 29°43' W 095°01'3 6.9
2017-Dec-04 03:30N 29°40' W 094°59'4 7.5
2017-Dec-04 03:00N 29°37' W 094°57'4 7.4
2017-Dec-04 02:30N 29°34' W 094°55'12 0.5
2017-Dec-03 04:34N 29°23' W 094°52'0 0.0
2017-Dec-03 04:28N 29°23' W 094°52'0 0.0
2017-Dec-03 03:22N 29°23' W 094°52'0 0.0
2017-Dec-03 00:35N 29°23' W 094°52'11 1.7
2017-Dec-02 18:01N 29°33' W 094°55'0 8.7
2017-Dec-02 18:00N 29°33' W 094°55'4 8.8
2017-Dec-02 17:30N 29°37' W 094°57'5 8.9
2017-Dec-02 17:00N 29°41' W 094°59'5 7.3
2017-Dec-02 16:20N 29°44' W 095°03'3 5.4
2017-Dec-02 15:47N 29°44' W 095°07'2 7.9
2017-Dec-02 15:30N 29°44' W 095°09'3 6.5
2017-Dec-02 15:00N 29°43' W 095°13'3 6.1
2017-Dec-02 14:30N 29°44' W 095°16'1 2.0
2017-Dec-02 14:00N 29°44' W 095°17'3 5.0
2017-Dec-02 13:25N 29°44' W 095°14'2 0.9
2017-Dec-02 11:38N 29°44' W 095°12'0 0.0
2017-Dec-02 10:36N 29°44' W 095°12'0 0.0
2017-Dec-02 10:20N 29°44' W 095°12'0 0.0
2017-Dec-02 09:55N 29°44' W 095°12'0 0.0
2017-Dec-02 09:29N 29°44' W 095°12'0 0.0
2017-Dec-02 09:00N 29°44' W 095°12'0 0.0
2017-Dec-02 08:29N 29°44' W 095°12'0 0.0
2017-Dec-02 08:00N 29°44' W 095°12'0 0.0
2017-Dec-02 07:30N 29°44' W 095°12'0 0.0
2017-Dec-02 07:00N 29°44' W 095°12'0 0.0
2017-Dec-02 06:30N 29°44' W 095°12'0 0.0
2017-Dec-02 06:00N 29°44' W 095°12'0 0.0
2017-Dec-02 05:30N 29°44' W 095°12'0 0.0
2017-Dec-02 05:00N 29°44' W 095°12'0 0.0
2017-Dec-02 04:30N 29°44' W 095°12'0 0.0
2017-Dec-02 04:00N 29°44' W 095°12'0 0.0
2017-Dec-02 03:29N 29°44' W 095°12'0 0.0
2017-Dec-02 03:00N 29°44' W 095°12'0 0.0
2017-Dec-02 02:30N 29°44' W 095°12'0 0.0
2017-Dec-02 02:00N 29°44' W 095°12'0 0.0
2017-Dec-02 01:30N 29°44' W 095°12'0 0.0
2017-Dec-02 00:59N 29°44' W 095°12'0 0.0
2017-Dec-02 00:28N 29°44' W 095°12'0 0.0
2017-Dec-01 23:57N 29°44' W 095°12'0 0.0
2017-Dec-01 23:30N 29°44' W 095°12'0 0.0
2017-Dec-01 22:58N 29°44' W 095°12'0 0.0
2017-Dec-01 22:13N 29°44' W 095°12'0 0.0
2017-Dec-01 21:59N 29°44' W 095°12'0 0.0
2017-Dec-01 21:27N 29°44' W 095°12'0 0.0
2017-Dec-01 18:51N 29°44' W 095°12'0 0.0
2017-Dec-01 18:07N 29°44' W 095°12'0 0.0
2017-Dec-01 17:53N 29°44' W 095°12'0 0.0
2017-Dec-01 17:27N 29°44' W 095°12'  

Dump ship's entire track history